Time;durP1;ratioP1;P1;durP2;ratioP2;P2;SDS_P1;SDS_P2;PMS_P1;PMS_P2;Temp;Humidity;BMP_temperature;BMP_pressure;BME280_temperature;BME280_humidity;BME280_pressure;Samples;Min_cycle;Max_cycle;Signal;HPM_P1;HPM_P2
2022/05/19 00:01:40;;;;;;;;;;;;;;;21.27;21.58;100290.03;4454011;32;34321;-85
2022/05/19 00:04:08;;;;;;;;;;;;;;;21.33;21.49;100290.00;4466614;32;34317;-84
2022/05/19 00:06:35;;;;;;;;;;;;;;;21.17;21.15;100293.69;4467744;32;34726;-85
2022/05/19 00:09:02;;;;;;;;;;;;;;;21.10;21.26;100290.28;4467948;32;34895;-86
2022/05/19 00:11:31;;;;;;;;;;;;;;;21.11;21.59;100285.88;4467013;32;33999;-86
2022/05/19 00:13:58;;;;;;;;;;;;;;;21.24;21.71;100292.72;4452183;32;33257;-85
2022/05/19 00:16:26;;;;;;;;;;;;;;;21.21;21.74;100292.75;4466026;32;34192;-84
2022/05/19 00:18:54;;;;;;;;;;;;;;;21.16;21.65;100301.63;4468083;32;34140;-86
2022/05/19 00:21:21;;;;;;;;;;;;;;;21.19;21.50;100296.31;4465771;32;34811;-84
2022/05/19 00:23:48;;;;;;;;;;;;;;;21.08;21.70;100296.44;4451115;32;33817;-83
2022/05/19 00:26:16;;;;;;;;;;;;;;;21.12;21.85;100295.50;4451092;32;33910;-84
2022/05/19 00:28:43;;;;;;;;;;;;;;;21.04;21.99;100292.09;4452179;32;35214;-86
2022/05/19 00:31:10;;;;;;;;;;;;;;;20.99;22.06;100293.94;4455214;32;33715;-86
2022/05/19 00:33:39;;;;;;;;;;;;;;;20.89;21.98;100294.03;4457424;32;32922;-83
2022/05/19 00:36:07;;;;;;;;;;;;;;;21.02;21.88;100292.09;4451236;32;33899;-86
2022/05/19 00:38:34;;;;;;;;;;;;;;;21.02;21.55;100296.50;4450892;32;34003;-86
2022/05/19 00:41:02;;;;;;;;;;;;;;;21.01;21.77;100293.00;4452439;32;34234;-85
2022/05/19 00:43:31;;;;;;;;;;;;;;;20.88;22.12;100297.56;4459684;32;33235;-85
2022/05/19 00:46:04;;;;;;;;;;;;;;;20.95;22.07;100297.47;4451994;32;33656;-86
2022/05/19 00:48:49;;;;;;;;;;;;;;;20.99;21.97;100293.94;4450773;32;34427;-84
2022/05/19 00:51:17;;;;;;;;;;;;;;;21.18;22.17;100292.81;4456804;32;34521;-83
2022/05/19 00:53:45;;;;;;;;;;;;;;;21.17;22.09;100291.03;4466042;32;34416;-85
2022/05/19 00:56:14;;;;;;;;;;;;;;;20.88;22.55;100294.06;4464731;32;34226;-85
2022/05/19 00:58:44;;;;;;;;;;;;;;;20.85;22.85;100288.81;4450612;32;34266;-86
2022/05/19 01:01:12;;;;;;;;;;;;;;;21.13;22.64;100294.63;4454821;32;33686;-86
2022/05/19 01:03:45;;;;;;;;;;;;;;;20.87;22.34;100289.66;4466883;32;33259;-85
2022/05/19 01:06:17;;;;;;;;;;;;;;;20.78;22.54;100284.50;4460836;32;34367;-85
2022/05/19 01:08:46;;;;;;;;;;;;;;;20.63;23.00;100282.88;4452319;32;34474;-85
2022/05/19 01:11:14;;;;;;;;;;;;;;;20.48;22.56;100286.53;4457784;32;35047;-86
2022/05/19 01:13:42;;;;;;;;;;;;;;;20.53;22.11;100289.13;4452838;32;34287;-86
2022/05/19 01:16:09;;;;;;;;;;;;;;;20.48;22.08;100285.66;4450493;32;34510;-85
2022/05/19 01:18:37;;;;;;;;;;;;;;;20.43;22.11;100283.06;4452814;32;34279;-84
2022/05/19 01:21:06;;;;;;;;;;;;;;;20.53;22.01;100278.59;4451009;32;34241;-86
2022/05/19 01:23:40;;;;;;;;;;;;;;;20.47;22.58;100291.81;4464393;32;32933;-85
2022/05/19 01:26:13;;;;;;;;;;;;;;;20.55;22.75;100275.06;4467322;32;33910;-85
2022/05/19 01:28:40;;;;;;;;;;;;;;;20.42;22.67;100284.84;4465451;32;33956;-86
2022/05/19 01:31:25;;;;;;;;;;;;;;;20.03;23.07;100283.41;4450914;32;34967;-86
2022/05/19 01:33:53;;;;;;;;;;;;;;;20.17;22.82;100284.16;4451879;32;32603;-86
2022/05/19 01:36:20;;;;;;;;;;;;;;;20.00;22.84;100282.56;4451704;32;34162;-85
2022/05/19 01:38:48;;;;;;;;;;;;;;;19.95;22.87;100282.59;4452884;32;34526;-86
2022/05/19 01:41:23;;;;;;;;;;;;;;;20.07;22.82;100279.84;4450096;32;33935;-85
2022/05/19 01:44:02;;;;;;;;;;;;;;;20.27;22.60;100276.22;4450302;32;33648;-86
2022/05/19 01:46:34;;;;;;;;;;;;;;;20.32;22.37;100275.25;4452448;32;34015;-86
2022/05/19 01:49:13;;;;;;;;;;;;;;;20.23;22.35;100275.34;4454473;32;34531;-83
2022/05/19 01:51:43;;;;;;;;;;;;;;;20.23;22.13;100275.34;4471541;32;33855;-86
2022/05/19 01:54:33;;;;;;;;;;;;;;;20.26;21.97;100275.31;4466998;32;33227;-86
2022/05/19 01:57:02;;;;;;;;;;;;;;;20.25;22.19;100281.47;4468062;32;33838;-85
2022/05/19 01:59:48;;;;;;;;;;;;;;;20.27;22.20;100277.06;4464986;32;34591;-85
2022/05/19 02:02:18;;;;;;;;;;;;;;;20.21;22.35;100290.28;4483173;32;33913;-83
2022/05/19 02:04:56;;;;;;;;;;;;;;;20.18;21.99;100293.81;4458216;32;34076;-82
2022/05/19 02:07:23;;;;;;;;;;;;;;;20.31;22.29;100291.97;4472001;32;35150;-85
2022/05/19 02:09:53;;;;;;;;;;;;;;;20.28;23.29;100299.88;4466505;32;35125;-85
2022/05/19 02:12:21;;;;;;;;;;;;;;;20.36;23.07;100298.03;4468243;32;34955;-85
2022/05/19 02:14:50;;;;;;;;;;;;;;;20.35;22.98;100296.31;4472087;32;33300;-85
2022/05/19 02:17:19;;;;;;;;;;;;;;;20.23;22.83;100291.16;4472250;32;34345;-82
2022/05/19 02:19:48;;;;;;;;;;;;;;;20.01;23.02;100287.81;4466090;32;34849;-85
2022/05/19 02:22:16;;;;;;;;;;;;;;;19.99;23.17;100286.94;4460374;32;33767;-84
2022/05/19 02:24:46;;;;;;;;;;;;;;;19.98;23.33;100286.97;4457519;32;32980;-83
2022/05/19 02:27:26;;;;;;;;;;;;;;;19.98;23.39;100284.34;4457588;32;34234;-85
2022/05/19 02:29:53;;;;;;;;;;;;;;;20.06;23.27;100285.16;4480897;31;33905;-85
2022/05/19 02:32:20;;;;;;;;;;;;;;;20.21;23.17;100287.66;4486054;32;35365;-84
2022/05/19 02:34:48;;;;;;;;;;;;;;;20.01;23.29;100293.09;4487725;31;33692;-85
2022/05/19 02:37:18;;;;;;;;;;;;;;;19.95;23.39;100295.75;4487286;32;35128;-85
2022/05/19 02:39:46;;;;;;;;;;;;;;;19.99;23.44;100307.12;4478370;32;34116;-85
2022/05/19 02:42:13;;;;;;;;;;;;;;;19.97;23.52;100301.03;4469202;32;34012;-85
2022/05/19 02:44:40;;;;;;;;;;;;;;;19.90;23.62;100301.06;4487303;32;34190;-85
2022/05/19 02:47:08;;;;;;;;;;;;;;;19.64;23.64;100305.63;4486624;32;34124;-85
2022/05/19 02:49:35;;;;;;;;;;;;;;;19.47;23.38;100312.69;4475374;32;34380;-84
2022/05/19 02:52:02;;;;;;;;;;;;;;;19.58;23.25;100300.34;4486601;32;34021;-85
2022/05/19 02:54:30;;;;;;;;;;;;;;;19.66;23.33;100310.00;4469047;32;34032;-83
2022/05/19 02:56:57;;;;;;;;;;;;;;;19.76;23.45;100307.28;4471591;32;35118;-85
2022/05/19 02:59:24;;;;;;;;;;;;;;;19.63;23.60;100304.75;4482687;31;34101;-85
2022/05/19 03:01:52;;;;;;;;;;;;;;;19.71;23.73;100312.59;4486890;32;34695;-84
2022/05/19 03:04:19;;;;;;;;;;;;;;;19.64;23.69;100310.88;4486606;31;32978;-84
2022/05/19 03:06:47;;;;;;;;;;;;;;;19.69;23.67;100315.22;4485566;32;34113;-84
2022/05/19 03:09:14;;;;;;;;;;;;;;;19.77;24.11;100317.78;4474667;32;34280;-84
2022/05/19 03:11:41;;;;;;;;;;;;;;;19.59;24.44;100315.28;4483536;32;32779;-84
2022/05/19 03:14:08;;;;;;;;;;;;;;;19.39;25.27;100316.22;4484240;32;33030;-84
2022/05/19 03:16:38;;;;;;;;;;;;;;;19.38;25.02;100313.62;4473748;32;34326;-83
2022/05/19 03:19:05;;;;;;;;;;;;;;;19.41;25.37;100314.47;4472557;32;34827;-84
2022/05/19 03:21:33;;;;;;;;;;;;;;;19.57;24.96;100314.38;4483494;32;34405;-84
2022/05/19 03:24:00;;;;;;;;;;;;;;;19.60;25.63;100310.00;4483913;32;32892;-84
2022/05/19 03:26:28;;;;;;;;;;;;;;;19.53;25.64;100315.28;4483732;32;34053;-83
2022/05/19 03:28:58;;;;;;;;;;;;;;;19.43;25.93;100315.34;4468034;32;35225;-83
2022/05/19 03:31:26;;;;;;;;;;;;;;;19.55;26.47;100321.44;4483694;32;34083;-85
2022/05/19 03:33:54;;;;;;;;;;;;;;;19.55;26.99;100334.59;4484038;32;32917;-85
2022/05/19 03:36:21;;;;;;;;;;;;;;;19.59;27.06;100331.94;4483069;32;34033;-84
2022/05/19 03:38:48;;;;;;;;;;;;;;;19.66;27.37;100338.94;4467086;32;34458;-84
2022/05/19 03:41:16;;;;;;;;;;;;;;;19.72;27.61;100339.78;4468376;32;33606;-84
2022/05/19 03:43:43;;;;;;;;;;;;;;;19.65;27.74;100337.16;4468155;32;33212;-85
2022/05/19 03:46:10;;;;;;;;;;;;;;;19.71;28.08;100338.91;4468202;32;34147;-84
2022/05/19 03:48:38;;;;;;;;;;;;;;;19.89;28.43;100351.09;4482612;32;34074;-84
2022/05/19 03:51:09;;;;;;;;;;;;;;;19.97;28.47;100346.63;4467639;32;35075;-85
2022/05/19 03:53:37;;;;;;;;;;;;;;;20.10;28.37;100340.38;4454221;32;33210;-84
2022/05/19 03:56:05;;;;;;;;;;;;;;;20.11;28.53;100346.53;4468421;32;34022;-84
2022/05/19 03:58:32;;;;;;;;;;;;;;;20.26;28.63;100345.53;4482670;32;35252;-84
2022/05/19 04:00:59;;;;;;;;;;;;;;;20.20;28.82;100349.09;4468195;32;34006;-84
2022/05/19 04:03:27;;;;;;;;;;;;;;;20.50;28.61;100345.37;4468403;32;33115;-84
2022/05/19 04:05:54;;;;;;;;;;;;;;;20.87;28.30;100348.53;4468044;32;33881;-84
2022/05/19 04:08:22;;;;;;;;;;;;;;;21.25;28.19;100347.22;4481538;32;34265;-84
2022/05/19 04:10:50;;;;;;;;;;;;;;;21.69;27.65;100358.13;4482711;32;35145;-84
2022/05/19 04:13:17;;;;;;;;;;;;;;;22.11;27.34;100361.91;4483711;32;33432;-84
2022/05/19 04:15:45;;;;;;;;;;;;;;;22.47;26.87;100362.25;4477759;32;34028;-83
2022/05/19 04:18:14;;;;;;;;;;;;;;;22.88;26.36;100364.19;4473278;32;34244;-84
2022/05/19 04:20:41;;;;;;;;;;;;;;;22.72;27.27;100358.28;4468564;32;35089;-84
2022/05/19 04:23:09;;;;;;;;;;;;;;;22.81;27.51;100363.41;4480573;32;32710;-84
2022/05/19 04:25:37;;;;;;;;;;;;;;;23.27;27.12;100365.19;4477452;32;34003;-87
2022/05/19 04:28:04;;;;;;;;;;;;;;;24.24;25.74;100369.28;4474600;32;34318;-87
2022/05/19 04:30:32;;;;;;;;;;;;;;;24.71;25.41;100364.56;4477076;32;34933;-86
2022/05/19 04:33:03;;;;;;;;;;;;;;;25.04;24.99;100361.03;4471304;32;33153;-85
2022/05/19 04:35:31;;;;;;;;;;;;;;;25.16;24.85;100361.63;4466150;32;33617;-86
2022/05/19 04:38:11;;;;;;;;;;;;;;;24.98;25.18;100364.75;4466346;32;34498;-86
2022/05/19 04:40:40;;;;;;;;;;;;;;;24.30;26.37;100370.03;4477069;32;33742;-87
2022/05/19 04:43:13;;;;;;;;;;;;;;;24.86;26.06;100363.31;4467925;32;34745;-88
2022/05/19 04:45:41;;;;;;;;;;;;;;;25.06;25.46;100362.75;4473711;32;35293;-85
2022/05/19 04:48:08;;;;;;;;;;;;;;;25.82;24.99;100367.66;4481007;32;34388;-85
2022/05/19 04:50:35;;;;;;;;;;;;;;;25.80;24.80;100363.31;4474584;32;34445;-87
2022/05/19 04:53:03;;;;;;;;;;;;;;;25.88;24.59;100366.63;4477302;32;33196;-88
2022/05/19 04:55:30;;;;;;;;;;;;;;;25.60;25.24;100372.72;4472113;32;34199;-84
2022/05/19 04:57:57;;;;;;;;;;;;;;;26.02;24.45;100369.69;4476001;32;34020;-86
2022/05/19 05:00:25;;;;;;;;;;;;;;;26.91;23.53;100358.78;4469686;32;34056;-86
2022/05/19 05:02:53;;;;;;;;;;;;;;;26.65;23.88;100365.00;4470573;32;33406;-86
2022/05/19 05:05:21;;;;;;;;;;;;;;;26.43;24.26;100365.69;4474157;32;33443;-86
2022/05/19 05:07:50;;;;;;;;;;;;;;;27.57;22.74;100367.03;4472815;32;34494;-86
2022/05/19 05:10:17;;;;;;;;;;;;;;;27.16;22.90;100362.34;4470724;32;34419;-86
2022/05/19 05:12:45;;;;;;;;;;;;;;;26.02;24.14;100369.69;4473317;32;33477;-85
2022/05/19 05:15:12;;;;;;;;;;;;;;;25.27;25.25;100373.69;4463193;32;34356;-84
2022/05/19 05:17:40;;;;;;;;;;;;;;;24.73;26.12;100370.69;4471197;32;34484;-86
2022/05/19 05:20:08;;;;;;;;;;;;;;;24.27;25.87;100374.47;4467550;32;35099;-86
2022/05/19 05:22:36;;;;;;;;;;;;;;;26.04;21.31;100373.19;4467439;32;34138;-86
2022/05/19 05:25:05;;;;;;;;;;;;;;;25.41;22.40;100372.37;4467065;32;33973;-84
2022/05/19 05:27:33;;;;;;;;;;;;;;;26.09;21.40;100378.34;4476330;32;34396;-86
2022/05/19 05:30:00;;;;;;;;;;;;;;;25.83;23.34;100382.69;4466017;32;34308;-86
2022/05/19 05:32:28;;;;;;;;;;;;;;;24.73;24.99;100389.25;4482883;31;34309;-86
2022/05/19 05:34:56;;;;;;;;;;;;;;;25.48;23.94;100391.69;4482108;31;35021;-86
2022/05/19 05:37:23;;;;;;;;;;;;;;;24.68;24.81;100391.16;4481140;32;34018;-86
2022/05/19 05:39:50;;;;;;;;;;;;;;;24.91;24.73;100384.38;4481202;32;34604;-86
2022/05/19 05:42:17;;;;;;;;;;;;;;;24.54;25.08;100395.94;4482145;32;34211;-86
2022/05/19 05:44:45;;;;;;;;;;;;;;;25.91;24.17;100401.03;4482293;32;35042;-86
2022/05/19 05:47:12;;;;;;;;;;;;;;;24.57;26.51;100409.13;4482080;32;34608;-85
2022/05/19 05:49:39;;;;;;;;;;;;;;;26.53;23.88;100405.31;4479548;32;34307;-85
2022/05/19 05:52:07;;;;;;;;;;;;;;;27.14;22.59;100398.78;4480833;32;33524;-83
2022/05/19 05:54:34;;;;;;;;;;;;;;;26.96;20.90;100396.72;4452619;32;34431;-86
2022/05/19 05:57:02;;;;;;;;;;;;;;;27.36;21.41;100392.69;4453081;32;34065;-86
2022/05/19 05:59:29;;;;;;;;;;;;;;;26.25;20.16;100400.84;4478309;32;34923;-85
2022/05/19 06:01:57;;;;;;;;;;;;;;;25.94;20.30;100407.13;4482665;32;33343;-83
2022/05/19 06:04:24;;;;;;;;;;;;;;;25.71;20.72;100402.47;4482266;32;34908;-84
2022/05/19 06:06:52;;;;;;;;;;;;;;;26.35;20.27;100396.13;4482662;32;34126;-84
2022/05/19 06:09:19;;;;;;;;;;;;;;;27.04;20.86;100394.66;4482630;32;35464;-83
2022/05/19 06:11:46;;;;;;;;;;;;;;;26.69;21.43;100394.09;4468256;32;34083;-84
2022/05/19 06:14:14;;;;;;;;;;;;;;;27.11;20.08;100388.22;4482456;32;33633;-85
2022/05/19 06:16:42;;;;;;;;;;;;;;;26.80;19.93;100384.91;4482440;32;34271;-84
2022/05/19 06:19:09;;;;;;;;;;;;;;;25.60;21.27;100393.97;4482503;32;34770;-85
2022/05/19 06:21:39;;;;;;;;;;;;;;;24.51;21.80;100398.69;4468246;32;32506;-85
2022/05/19 06:24:09;;;;;;;;;;;;;;;25.43;21.73;100396.25;4467742;32;35213;-84
2022/05/19 06:26:39;;;;;;;;;;;;;;;25.62;21.91;100402.78;4482115;32;35277;-83
2022/05/19 06:29:07;;;;;;;;;;;;;;;25.10;21.63;100398.94;4472433;32;34940;-84
2022/05/19 06:31:35;;;;;;;;;;;;;;;24.55;22.27;100416.28;4465042;32;33338;-84
2022/05/19 06:34:02;;;;;;;;;;;;;;;25.46;21.82;100401.50;4471424;32;32830;-85
2022/05/19 06:36:30;;;;;;;;;;;;;;;25.78;21.07;100410.28;4471241;32;34385;-84
2022/05/19 06:38:57;;;;;;;;;;;;;;;25.57;22.09;100404.69;4466425;32;34463;-85
2022/05/19 06:44:11;;;;;;;;;;;;;;;24.76;22.17;100405.09;4468318;32;34281;-86
2022/05/19 06:46:38;;;;;;;;;;;;;;;26.29;20.77;100404.28;4465541;32;33923;-85
2022/05/19 06:49:05;;;;;;;;;;;;;;;25.40;21.91;100404.31;4474310;32;33443;-86
2022/05/19 06:51:33;;;;;;;;;;;;;;;25.20;20.56;100403.09;4468723;32;33304;-85
2022/05/19 06:54:00;;;;;;;;;;;;;;;26.61;19.21;100411.25;4474893;32;34423;-84
2022/05/19 06:56:27;;;;;;;;;;;;;;;26.33;20.68;100406.81;4475325;32;35245;-85
2022/05/19 06:58:56;;;;;;;;;;;;;;;25.50;21.18;100400.47;4460732;32;34838;-85
2022/05/19 07:01:23;;;;;;;;;;;;;;;25.58;20.20;100406.44;4479097;32;34059;-85
2022/05/19 07:03:51;;;;;;;;;;;;;;;24.50;20.26;100408.41;4482528;32;33633;-85
2022/05/19 07:06:18;;;;;;;;;;;;;;;24.49;21.12;100411.09;4477576;32;34098;-86
2022/05/19 07:08:45;;;;;;;;;;;;;;;25.08;18.88;100406.03;4474319;32;34059;-87
2022/05/19 07:11:24;;;;;;;;;;;;;;;24.75;19.75;100408.66;4481627;32;32912;-85
2022/05/19 07:13:57;;;;;;;;;;;;;;;25.83;18.59;100408.38;4480419;32;33892;-85
2022/05/19 07:16:25;;;;;;;;;;;;;;;25.61;18.38;100403.69;4469315;32;34469;-86
2022/05/19 07:20:43;;;;;;;;;;;;;;;26.86;18.40;100405.97;4461352;32;35016;-86
2022/05/19 07:21:42;;;;;;;;;;;;;;;26.55;17.45;100409.66;4469253;32;33178;-85
2022/05/19 07:24:15;;;;;;;;;;;;;;;26.28;18.24;100407.88;4473161;32;34147;-85
2022/05/19 07:26:44;;;;;;;;;;;;;;;26.62;17.80;100405.88;4469502;32;34065;-85
2022/05/19 07:29:11;;;;;;;;;;;;;;;27.54;16.49;100400.00;4483761;32;35312;-86
2022/05/19 07:31:38;;;;;;;;;;;;;;;27.99;16.85;100404.50;4484306;32;34327;-86
2022/05/19 07:34:06;;;;;;;;;;;;;;;27.48;16.11;100394.88;4484397;31;35180;-86
2022/05/19 07:36:34;;;;;;;;;;;;;;;28.02;16.68;100401.72;4483760;32;34120;-86
2022/05/19 07:39:02;;;;;;;;;;;;;;;27.63;16.24;100401.44;4470673;32;34815;-84
2022/05/19 07:41:30;;;;;;;;;;;;;;;27.67;14.96;100400.38;4469860;32;34250;-87
2022/05/19 07:43:57;;;;;;;;;;;;;;;27.75;14.89;100397.47;4469567;32;34323;-86
2022/05/19 07:46:25;;;;;;;;;;;;;;;27.56;16.45;100398.12;4484033;31;33806;-86
2022/05/19 07:48:54;;;;;;;;;;;;;;;27.62;17.06;100397.03;4483988;32;34320;-85
2022/05/19 07:51:25;;;;;;;;;;;;;;;27.39;15.74;100389.91;4483770;32;33941;-86
2022/05/19 07:53:52;;;;;;;;;;;;;;;26.63;16.01;100398.75;4483507;32;34353;-86
2022/05/19 07:56:20;;;;;;;;;;;;;;;27.11;17.62;100390.91;4469624;32;35144;-86
2022/05/19 07:58:52;;;;;;;;;;;;;;;27.46;18.00;100393.19;4457559;32;34905;-86
2022/05/19 08:01:20;;;;;;;;;;;;;;;26.86;16.43;100390.03;4483936;32;33281;-86
2022/05/19 08:03:47;;;;;;;;;;;;;;;26.42;16.78;100393.22;4483745;32;34021;-87
2022/05/19 08:06:15;;;;;;;;;;;;;;;27.31;17.62;100391.97;4483852;32;34277;-87
2022/05/19 08:08:43;;;;;;;;;;;;;;;27.59;16.39;100395.34;4483779;32;34249;-86
2022/05/19 08:11:11;;;;;;;;;;;;;;;28.08;16.23;100392.63;4483930;32;33366;-85
2022/05/19 08:16:24;;;;;;;;;;;;;;;27.98;15.38;100396.56;4483709;32;34042;-86
2022/05/19 08:18:52;;;;;;;;;;;;;;;27.60;15.66;100393.56;4483873;32;33988;-86
2022/05/19 08:21:19;;;;;;;;;;;;;;;27.10;15.61;100383.81;4469733;32;34458;-86
2022/05/19 08:23:47;;;;;;;;;;;;;;;27.39;16.09;100395.25;4469874;32;34902;-86
2022/05/19 08:26:15;;;;;;;;;;;;;;;26.11;17.37;100401.31;4469574;32;34251;-85
2022/05/19 08:28:45;;;;;;;;;;;;;;;27.85;14.84;100393.53;4483797;32;34111;-86
2022/05/19 08:31:13;;;;;;;;;;;;;;;27.27;15.86;100390.34;4483539;31;34279;-86
2022/05/19 08:33:42;;;;;;;;;;;;;;;27.23;16.43;100384.25;4483441;31;35020;-86
2022/05/19 08:36:10;;;;;;;;;;;;;;;27.12;16.75;100395.31;4483631;32;34106;-86
2022/05/19 08:38:37;;;;;;;;;;;;;;;27.77;15.75;100382.25;4483407;32;34648;-87
2022/05/19 08:41:06;;;;;;;;;;;;;;;27.03;17.32;100382.28;4483495;32;33727;-86
2022/05/19 08:43:39;;;;;;;;;;;;;;;27.48;16.96;100389.56;4469303;32;34799;-86
2022/05/19 08:46:08;;;;;;;;;;;;;;;27.85;16.73;100386.37;4483688;32;33760;-86
2022/05/19 08:48:36;;;;;;;;;;;;;;;27.00;17.00;100400.16;4469306;32;33776;-87
2022/05/19 08:51:06;;;;;;;;;;;;;;;26.80;17.19;100399.06;4483582;32;33126;-86
2022/05/19 08:53:35;;;;;;;;;;;;;;;27.42;16.61;100397.75;4483911;32;33745;-86
2022/05/19 08:56:28;;;;;;;;;;;;;;;26.81;17.00;100387.50;4471394;32;34023;-86
2022/05/19 08:59:16;;;;;;;;;;;;;;;27.37;17.77;100391.75;4469364;32;33985;-85
2022/05/19 09:01:53;;;;;;;;;;;;;;;27.14;15.99;100380.16;4472797;32;34106;-86
2022/05/19 09:04:39;;;;;;;;;;;;;;;27.38;17.76;100389.00;4469434;32;33651;-87
2022/05/19 09:10:27;;;;;;;;;;;;;;;27.65;17.05;100384.47;4483327;32;33988;-85
2022/05/19 09:13:16;;;;;;;;;;;;;;;25.30;18.19;100384.22;4483484;32;34268;-86
2022/05/19 09:15:47;;;;;;;;;;;;;;;26.64;18.46;100388.09;4473412;32;35186;-87
2022/05/19 09:18:20;;;;;;;;;;;;;;;27.15;17.94;100373.03;4483494;32;35260;-87
2022/05/19 09:20:52;;;;;;;;;;;;;;;28.36;16.81;100374.53;4469470;32;35052;-86
2022/05/19 09:23:19;;;;;;;;;;;;;;;27.37;16.41;100371.31;4483280;32;33336;-86
2022/05/19 09:25:49;;;;;;;;;;;;;;;27.48;16.07;100370.91;4468787;32;34127;-86
2022/05/19 09:28:17;;;;;;;;;;;;;;;27.03;16.73;100370.78;4469215;32;33969;-86
2022/05/19 09:30:47;;;;;;;;;;;;;;;27.24;16.03;100369.16;4483221;32;33830;-87
2022/05/19 09:33:16;;;;;;;;;;;;;;;27.47;16.45;100377.19;4483075;32;32962;-86
2022/05/19 09:35:45;;;;;;;;;;;;;;;28.18;15.80;100366.44;4468899;32;35205;-86
2022/05/19 09:38:31;;;;;;;;;;;;;;;27.84;14.63;100370.44;4468783;32;35334;-85
2022/05/19 09:41:03;;;;;;;;;;;;;;;27.72;15.59;100368.22;4483147;32;33586;-86
2022/05/19 09:43:36;;;;;;;;;;;;;;;26.99;15.82;100369.16;4469454;32;32923;-86
2022/05/19 09:46:14;;;;;;;;;;;;;;;27.96;15.78;100366.41;4483021;32;34811;-86
2022/05/19 09:48:43;;;;;;;;;;;;;;;27.88;15.76;100358.72;4469148;32;34479;-86
2022/05/19 09:51:14;;;;;;;;;;;;;;;28.59;15.64;100352.25;4468558;32;34552;-86
2022/05/19 09:53:42;;;;;;;;;;;;;;;28.24;15.40;100353.72;4468681;32;33399;-84
2022/05/19 09:56:11;;;;;;;;;;;;;;;27.83;16.07;100345.59;4469127;32;34085;-86
2022/05/19 09:58:41;;;;;;;;;;;;;;;27.54;15.65;100345.81;4468739;32;35316;-85
2022/05/19 10:01:16;;;;;;;;;;;;;;;27.83;15.79;100342.06;4482917;32;34234;-87
2022/05/19 10:03:44;;;;;;;;;;;;;;;27.62;15.68;100349.94;4468976;32;33172;-87
2022/05/19 10:06:15;;;;;;;;;;;;;;;28.01;15.80;100345.81;4482880;32;33966;-88
2022/05/19 10:08:43;;;;;;;;;;;;;;;27.25;16.15;100329.16;4468456;32;34294;-88
2022/05/19 10:11:13;;;;;;;;;;;;;;;27.09;17.41;100338.63;4482728;32;33800;-86
2022/05/19 10:13:49;;;;;;;;;;;;;;;27.26;17.34;100335.34;4482636;31;34144;-83
2022/05/19 10:16:30;;;;;;;;;;;;;;;26.80;15.76;100339.66;4482927;32;33747;-85
2022/05/19 10:19:01;;;;;;;;;;;;;;;27.42;15.29;100337.38;4470446;32;35202;-86
2022/05/19 10:21:43;;;;;;;;;;;;;;;25.57;16.55;100330.34;4470412;32;34269;-87
2022/05/19 10:24:29;;;;;;;;;;;;;;;26.91;16.12;100329.50;4470674;31;33866;-86
2022/05/19 10:33:17;;;;;;;;;;;;;;;27.19;15.72;100324.06;4484626;32;34251;-87
2022/05/19 10:35:56;;;;;;;;;;;;;;;27.93;15.28;100324.78;4484744;32;33293;-87
2022/05/19 10:38:29;;;;;;;;;;;;;;;28.53;14.80;100311.66;4483560;31;34287;-87
2022/05/19 10:41:15;;;;;;;;;;;;;;;28.77;15.32;100299.91;4484413;32;34429;-86
2022/05/19 10:43:48;;;;;;;;;;;;;;;28.80;14.21;100298.91;4484301;32;34212;-86
2022/05/19 10:46:16;;;;;;;;;;;;;;;28.89;14.92;100298.47;4483266;32;33475;-86
2022/05/19 10:48:44;;;;;;;;;;;;;;;29.12;14.88;100292.13;4469662;32;33929;-85
2022/05/19 10:51:15;;;;;;;;;;;;;;;28.96;14.79;100299.94;4483546;32;34244;-88
2022/05/19 10:53:46;;;;;;;;;;;;;;;28.10;14.06;100295.63;4484058;32;34291;-85
2022/05/19 10:56:34;;;;;;;;;;;;;;;28.80;14.03;100290.91;4484222;31;33442;-88
2022/05/19 10:59:18;;;;;;;;;;;;;;;27.15;14.92;100286.03;4484309;32;35191;-88
2022/05/19 11:02:11;;;;;;;;;;;;;;;27.61;15.48;100275.41;4469691;32;34812;-86
2022/05/19 11:04:42;;;;;;;;;;;;;;;28.56;15.66;100274.16;4465744;32;33458;-87
2022/05/19 11:07:12;;;;;;;;;;;;;;;28.87;15.44;100279.03;4484056;32;32763;-85
2022/05/19 11:09:45;;;;;;;;;;;;;;;28.84;14.63;100271.16;4484271;32;35420;-86
2022/05/19 11:12:22;;;;;;;;;;;;;;;28.58;15.34;100267.81;4483935;31;34179;-85
2022/05/19 11:15:02;;;;;;;;;;;;;;;29.11;14.66;100271.72;4484154;32;34128;-85
2022/05/19 11:17:32;;;;;;;;;;;;;;;29.40;13.40;100267.69;4484036;31;34250;-85
2022/05/19 11:20:24;;;;;;;;;;;;;;;29.19;13.62;100252.66;4483820;32;34854;-89
2022/05/19 11:22:54;;;;;;;;;;;;;;;27.93;13.95;100263.47;4461307;32;34446;-87
2022/05/19 11:28:24;;;;;;;;;;;;;;;29.38;13.46;100253.53;4471761;32;34089;-86
2022/05/19 11:30:54;;;;;;;;;;;;;;;28.96;13.97;100243.87;4469822;32;34313;-86
2022/05/19 11:33:23;;;;;;;;;;;;;;;28.97;14.50;100244.75;4484187;32;35258;-85
2022/05/19 11:35:53;;;;;;;;;;;;;;;29.20;14.35;100235.69;4469588;32;33860;-86
2022/05/19 11:38:42;;;;;;;;;;;;;;;29.42;12.92;100241.75;4469905;32;34072;-86
2022/05/19 11:41:24;;;;;;;;;;;;;;;29.06;14.83;100239.03;4469772;32;33938;-86
2022/05/19 11:44:10;;;;;;;;;;;;;;;28.82;13.94;100228.50;4469508;32;35270;-86
2022/05/19 11:46:44;;;;;;;;;;;;;;;28.49;13.52;100220.22;4469631;32;34776;-86
2022/05/19 11:55:14;;;;;;;;;;;;;;;29.57;13.26;100211.66;4471975;32;35330;-86
2022/05/19 11:57:46;;;;;;;;;;;;;;;29.19;13.64;100221.47;4471536;32;34684;-86
2022/05/19 12:00:21;;;;;;;;;;;;;;;29.06;13.30;100221.19;4483807;32;33825;-85
2022/05/19 12:03:07;;;;;;;;;;;;;;;29.07;12.63;100214.06;4469499;32;34441;-86
2022/05/19 12:05:39;;;;;;;;;;;;;;;29.48;13.99;100211.22;4483723;32;34184;-86
2022/05/19 12:08:19;;;;;;;;;;;;;;;29.98;14.09;100203.37;4469286;31;34555;-85
2022/05/19 12:10:48;;;;;;;;;;;;;;;29.53;13.81;100199.34;4483534;31;33305;-86
2022/05/19 12:13:21;;;;;;;;;;;;;;;30.08;14.41;100193.09;4469296;32;34248;-87
2022/05/19 12:15:54;;;;;;;;;;;;;;;30.25;13.50;100197.56;4469509;32;34554;-86
2022/05/19 12:18:25;;;;;;;;;;;;;;;29.77;12.99;100191.94;4469559;32;33954;-86
2022/05/19 12:20:52;;;;;;;;;;;;;;;29.56;12.97;100188.50;4484137;32;34216;-88
2022/05/19 12:23:32;;;;;;;;;;;;;;;29.64;13.05;100180.16;4483741;31;35035;-86
2022/05/19 12:26:06;;;;;;;;;;;;;;;29.59;12.69;100190.22;4483709;32;34056;-84
2022/05/19 12:28:39;;;;;;;;;;;;;;;30.41;12.62;100187.78;4483668;32;34347;-85
2022/05/19 12:34:29;;;;;;;;;;;;;;;29.62;13.28;100186.50;4480086;31;34206;-84
2022/05/19 12:37:15;;;;;;;;;;;;;;;29.09;12.58;100183.69;4483626;32;35228;-85
2022/05/19 12:39:42;;;;;;;;;;;;;;;29.42;13.04;100185.66;4482546;32;34744;-85
2022/05/19 12:42:38;;;;;;;;;;;;;;;29.06;14.38;100182.97;4483443;32;34145;-86
2022/05/19 12:45:23;;;;;;;;;;;;;;;29.13;14.49;100184.38;4483600;32;35048;-85
2022/05/19 12:47:58;;;;;;;;;;;;;;;29.29;14.49;100182.72;4483201;32;34784;-86
2022/05/19 12:50:39;;;;;;;;;;;;;;;29.27;14.40;100183.72;4469448;32;34030;-86
2022/05/19 12:53:10;;;;;;;;;;;;;;;29.07;14.32;100179.34;4483372;32;34202;-85
2022/05/19 12:55:38;;;;;;;;;;;;;;;29.94;14.21;100177.72;4469699;32;33817;-85
2022/05/19 12:58:24;;;;;;;;;;;;;;;29.97;13.70;100174.06;4483387;32;34410;-86
2022/05/19 13:00:52;;;;;;;;;;;;;;;29.89;13.74;100168.19;4483369;32;33806;-86
2022/05/19 13:03:20;;;;;;;;;;;;;;;30.37;13.42;100170.16;4483332;32;33429;-85
2022/05/19 13:05:52;;;;;;;;;;;;;;;30.03;13.98;100166.56;4468706;32;34074;-85
2022/05/19 13:08:32;;;;;;;;;;;;;;;28.73;13.86;100159.53;4469526;32;34300;-86
2022/05/19 13:11:00;;;;;;;;;;;;;;;29.17;13.93;100155.72;4483225;31;34225;-86
2022/05/19 13:13:28;;;;;;;;;;;;;;;28.80;14.14;100144.12;4456565;32;33001;-86
2022/05/19 13:16:01;;;;;;;;;;;;;;;29.45;14.77;100147.25;4483211;32;33822;-87
2022/05/19 13:18:31;;;;;;;;;;;;;;;29.58;15.25;100141.22;4469418;32;34096;-83
2022/05/19 13:21:02;;;;;;;;;;;;;;;29.50;13.72;100138.03;4483286;31;34896;-86